sensor_id;sensor_type;location;lat;lon;timestamp;P1;durP1;ratioP1;P2;durP2;ratioP2
2157;SDS011;41972;48.774;9.282;2023-03-03T00:00:41;70.70;;;64.13;;
2157;SDS011;41972;48.774;9.282;2023-03-03T00:03:07;76.13;;;69.83;;
2157;SDS011;41972;48.774;9.282;2023-03-03T00:05:35;83.90;;;77.07;;
2157;SDS011;41972;48.774;9.282;2023-03-03T00:08:01;75.87;;;69.30;;
2157;SDS011;41972;48.774;9.282;2023-03-03T00:10:27;70.20;;;64.07;;
2157;SDS011;41972;48.774;9.282;2023-03-03T00:12:53;87.97;;;80.73;;
2157;SDS011;41972;48.774;9.282;2023-03-03T00:15:20;72.87;;;66.40;;
2157;SDS011;41972;48.774;9.282;2023-03-03T00:17:47;69.70;;;62.60;;
2157;SDS011;41972;48.774;9.282;2023-03-03T00:20:30;66.07;;;59.60;;
2157;SDS011;41972;48.774;9.282;2023-03-03T00:25:49;63.63;;;57.10;;
2157;SDS011;41972;48.774;9.282;2023-03-03T00:28:24;80.53;;;73.30;;
2157;SDS011;41972;48.774;9.282;2023-03-03T00:31:11;100.53;;;92.80;;
2157;SDS011;41972;48.774;9.282;2023-03-03T00:33:51;60.47;;;54.17;;
2157;SDS011;41972;48.774;9.282;2023-03-03T00:36:23;62.73;;;56.17;;
2157;SDS011;41972;48.774;9.282;2023-03-03T00:38:52;105.90;;;97.37;;
2157;SDS011;41972;48.774;9.282;2023-03-03T00:41:19;58.50;;;52.30;;
2157;SDS011;41972;48.774;9.282;2023-03-03T00:43:48;66.20;;;59.63;;
2157;SDS011;41972;48.774;9.282;2023-03-03T00:46:15;70.53;;;63.73;;
2157;SDS011;41972;48.774;9.282;2023-03-03T00:48:43;70.07;;;63.37;;
2157;SDS011;41972;48.774;9.282;2023-03-03T00:53:53;65.70;;;58.80;;
2157;SDS011;41972;48.774;9.282;2023-03-03T00:56:19;65.77;;;59.10;;
2157;SDS011;41972;48.774;9.282;2023-03-03T00:58:44;82.10;;;74.93;;
2157;SDS011;41972;48.774;9.282;2023-03-03T01:01:12;64.10;;;57.60;;
2157;SDS011;41972;48.774;9.282;2023-03-03T01:03:38;70.13;;;62.90;;
2157;SDS011;41972;48.774;9.282;2023-03-03T01:06:04;71.17;;;63.70;;
2157;SDS011;41972;48.774;9.282;2023-03-03T01:08:29;66.73;;;59.87;;
2157;SDS011;41972;48.774;9.282;2023-03-03T01:10:59;77.03;;;68.97;;
2157;SDS011;41972;48.774;9.282;2023-03-03T01:13:30;69.57;;;62.17;;
2157;SDS011;41972;48.774;9.282;2023-03-03T01:15:58;97.40;;;89.47;;
2157;SDS011;41972;48.774;9.282;2023-03-03T01:18:25;67.30;;;60.10;;
2157;SDS011;41972;48.774;9.282;2023-03-03T01:20:51;72.97;;;65.87;;
2157;SDS011;41972;48.774;9.282;2023-03-03T01:23:16;74.90;;;67.00;;
2157;SDS011;41972;48.774;9.282;2023-03-03T01:25:42;74.63;;;66.70;;
2157;SDS011;41972;48.774;9.282;2023-03-03T01:28:08;79.20;;;71.30;;
2157;SDS011;41972;48.774;9.282;2023-03-03T01:30:33;71.87;;;64.63;;
2157;SDS011;41972;48.774;9.282;2023-03-03T01:32:59;78.47;;;70.80;;
2157;SDS011;41972;48.774;9.282;2023-03-03T01:35:25;87.40;;;79.23;;
2157;SDS011;41972;48.774;9.282;2023-03-03T01:37:50;73.83;;;65.60;;
2157;SDS011;41972;48.774;9.282;2023-03-03T01:40:20;88.73;;;79.83;;
2157;SDS011;41972;48.774;9.282;2023-03-03T01:42:47;97.43;;;88.53;;
2157;SDS011;41972;48.774;9.282;2023-03-03T01:45:26;94.10;;;85.23;;
2157;SDS011;41972;48.774;9.282;2023-03-03T01:48:00;118.60;;;109.27;;
2157;SDS011;41972;48.774;9.282;2023-03-03T01:50:32;125.30;;;115.60;;
2157;SDS011;41972;48.774;9.282;2023-03-03T01:53:06;96.03;;;87.20;;
2157;SDS011;41972;48.774;9.282;2023-03-03T01:55:38;79.40;;;70.63;;
2157;SDS011;41972;48.774;9.282;2023-03-03T01:58:07;114.90;;;105.30;;
2157;SDS011;41972;48.774;9.282;2023-03-03T02:00:43;80.63;;;72.13;;
2157;SDS011;41972;48.774;9.282;2023-03-03T02:03:14;120.10;;;110.40;;
2157;SDS011;41972;48.774;9.282;2023-03-03T02:05:40;96.00;;;87.13;;
2157;SDS011;41972;48.774;9.282;2023-03-03T02:08:07;91.80;;;82.87;;
2157;SDS011;41972;48.774;9.282;2023-03-03T02:10:36;93.10;;;84.43;;
2157;SDS011;41972;48.774;9.282;2023-03-03T02:13:02;74.90;;;66.93;;
2157;SDS011;41972;48.774;9.282;2023-03-03T02:15:29;86.50;;;77.63;;
2157;SDS011;41972;48.774;9.282;2023-03-03T02:18:08;80.47;;;72.27;;
2157;SDS011;41972;48.774;9.282;2023-03-03T02:21:19;82.53;;;74.13;;
2157;SDS011;41972;48.774;9.282;2023-03-03T02:26:38;96.67;;;87.20;;
2157;SDS011;41972;48.774;9.282;2023-03-03T02:29:05;91.07;;;82.17;;
2157;SDS011;41972;48.774;9.282;2023-03-03T02:31:31;117.37;;;107.73;;
2157;SDS011;41972;48.774;9.282;2023-03-03T02:33:57;94.13;;;85.63;;
2157;SDS011;41972;48.774;9.282;2023-03-03T02:39:09;95.90;;;87.10;;
2157;SDS011;41972;48.774;9.282;2023-03-03T02:41:54;98.03;;;88.40;;
2157;SDS011;41972;48.774;9.282;2023-03-03T02:44:27;134.10;;;123.87;;
2157;SDS011;41972;48.774;9.282;2023-03-03T02:46:54;77.50;;;69.10;;
2157;SDS011;41972;48.774;9.282;2023-03-03T02:49:22;79.60;;;69.73;;
2157;SDS011;41972;48.774;9.282;2023-03-03T02:51:49;101.40;;;91.93;;
2157;SDS011;41972;48.774;9.282;2023-03-03T02:54:16;74.07;;;66.13;;
2157;SDS011;41972;48.774;9.282;2023-03-03T02:56:43;81.30;;;67.70;;
2157;SDS011;41972;48.774;9.282;2023-03-03T02:59:09;76.03;;;67.73;;
2157;SDS011;41972;48.774;9.282;2023-03-03T03:01:35;89.73;;;81.10;;
2157;SDS011;41972;48.774;9.282;2023-03-03T03:04:07;112.33;;;102.43;;
2157;SDS011;41972;48.774;9.282;2023-03-03T03:06:34;111.20;;;102.47;;
2157;SDS011;41972;48.774;9.282;2023-03-03T03:09:01;98.53;;;90.47;;
2157;SDS011;41972;48.774;9.282;2023-03-03T03:11:27;114.33;;;105.37;;
2157;SDS011;41972;48.774;9.282;2023-03-03T03:13:52;79.00;;;70.87;;
2157;SDS011;41972;48.774;9.282;2023-03-03T03:16:18;133.60;;;124.00;;
2157;SDS011;41972;48.774;9.282;2023-03-03T03:18:44;75.23;;;67.87;;
2157;SDS011;41972;48.774;9.282;2023-03-03T03:21:10;153.30;;;143.30;;
2157;SDS011;41972;48.774;9.282;2023-03-03T03:23:38;100.93;;;92.57;;
2157;SDS011;41972;48.774;9.282;2023-03-03T03:26:04;118.33;;;109.30;;
2157;SDS011;41972;48.774;9.282;2023-03-03T03:28:30;81.03;;;73.50;;
2157;SDS011;41972;48.774;9.282;2023-03-03T03:30:56;97.80;;;89.57;;
2157;SDS011;41972;48.774;9.282;2023-03-03T03:33:22;72.57;;;65.20;;
2157;SDS011;41972;48.774;9.282;2023-03-03T03:35:47;100.03;;;91.57;;
2157;SDS011;41972;48.774;9.282;2023-03-03T03:38:14;85.03;;;76.30;;
2157;SDS011;41972;48.774;9.282;2023-03-03T03:40:41;83.13;;;74.90;;
2157;SDS011;41972;48.774;9.282;2023-03-03T03:43:07;95.87;;;87.87;;
2157;SDS011;41972;48.774;9.282;2023-03-03T03:45:32;84.03;;;76.57;;
2157;SDS011;41972;48.774;9.282;2023-03-03T03:47:58;65.03;;;57.97;;
2157;SDS011;41972;48.774;9.282;2023-03-03T03:50:24;73.87;;;65.23;;
2157;SDS011;41972;48.774;9.282;2023-03-03T03:52:49;100.57;;;92.40;;
2157;SDS011;41972;48.774;9.282;2023-03-03T03:55:15;92.00;;;84.20;;
2157;SDS011;41972;48.774;9.282;2023-03-03T03:57:41;101.47;;;93.13;;
2157;SDS011;41972;48.774;9.282;2023-03-03T04:00:07;70.20;;;63.00;;
2157;SDS011;41972;48.774;9.282;2023-03-03T04:02:34;80.23;;;72.93;;
2157;SDS011;41972;48.774;9.282;2023-03-03T04:05:00;71.50;;;64.10;;
2157;SDS011;41972;48.774;9.282;2023-03-03T04:07:26;72.07;;;65.20;;
2157;SDS011;41972;48.774;9.282;2023-03-03T04:09:52;85.80;;;77.90;;
2157;SDS011;41972;48.774;9.282;2023-03-03T04:12:17;88.47;;;80.57;;
2157;SDS011;41972;48.774;9.282;2023-03-03T04:14:43;65.87;;;59.07;;
2157;SDS011;41972;48.774;9.282;2023-03-03T04:17:13;114.27;;;105.60;;
2157;SDS011;41972;48.774;9.282;2023-03-03T04:19:44;67.90;;;60.90;;
2157;SDS011;41972;48.774;9.282;2023-03-03T04:22:10;83.43;;;75.20;;
2157;SDS011;41972;48.774;9.282;2023-03-03T04:24:37;82.13;;;74.53;;
2157;SDS011;41972;48.774;9.282;2023-03-03T04:27:03;77.27;;;69.57;;
2157;SDS011;41972;48.774;9.282;2023-03-03T04:29:29;72.90;;;65.67;;
2157;SDS011;41972;48.774;9.282;2023-03-03T04:31:55;83.20;;;75.07;;
2157;SDS011;41972;48.774;9.282;2023-03-03T04:34:20;107.47;;;98.27;;
2157;SDS011;41972;48.774;9.282;2023-03-03T04:36:46;239.57;;;227.27;;
2157;SDS011;41972;48.774;9.282;2023-03-03T04:39:11;228.90;;;217.53;;
2157;SDS011;41972;48.774;9.282;2023-03-03T04:41:38;275.63;;;262.40;;
2157;SDS011;41972;48.774;9.282;2023-03-03T04:44:03;237.30;;;225.43;;
2157;SDS011;41972;48.774;9.282;2023-03-03T04:46:29;268.13;;;255.97;;
2157;SDS011;41972;48.774;9.282;2023-03-03T04:48:54;217.70;;;206.53;;
2157;SDS011;41972;48.774;9.282;2023-03-03T04:51:20;241.03;;;228.83;;
2157;SDS011;41972;48.774;9.282;2023-03-03T04:53:46;226.27;;;214.90;;
2157;SDS011;41972;48.774;9.282;2023-03-03T04:56:12;238.13;;;226.20;;
2157;SDS011;41972;48.774;9.282;2023-03-03T04:58:37;84.10;;;76.80;;
2157;SDS011;41972;48.774;9.282;2023-03-03T05:01:03;64.83;;;57.83;;
2157;SDS011;41972;48.774;9.282;2023-03-03T05:03:29;69.00;;;62.20;;
2157;SDS011;41972;48.774;9.282;2023-03-03T05:05:54;74.10;;;67.20;;
2157;SDS011;41972;48.774;9.282;2023-03-03T05:08:20;88.03;;;80.37;;
2157;SDS011;41972;48.774;9.282;2023-03-03T05:10:46;74.67;;;67.33;;
2157;SDS011;41972;48.774;9.282;2023-03-03T05:13:15;73.43;;;64.80;;
2157;SDS011;41972;48.774;9.282;2023-03-03T05:15:41;87.23;;;79.03;;
2157;SDS011;41972;48.774;9.282;2023-03-03T05:18:07;85.63;;;77.77;;
2157;SDS011;41972;48.774;9.282;2023-03-03T05:20:33;92.40;;;84.10;;
2157;SDS011;41972;48.774;9.282;2023-03-03T05:22:58;81.87;;;74.30;;
2157;SDS011;41972;48.774;9.282;2023-03-03T05:25:25;82.17;;;74.93;;
2157;SDS011;41972;48.774;9.282;2023-03-03T05:27:51;86.17;;;78.67;;
2157;SDS011;41972;48.774;9.282;2023-03-03T05:30:16;136.40;;;127.27;;
2157;SDS011;41972;48.774;9.282;2023-03-03T05:32:42;68.63;;;61.80;;
2157;SDS011;41972;48.774;9.282;2023-03-03T05:35:08;65.07;;;57.90;;
2157;SDS011;41972;48.774;9.282;2023-03-03T05:37:34;152.17;;;142.47;;
2157;SDS011;41972;48.774;9.282;2023-03-03T05:40:00;120.40;;;111.33;;
2157;SDS011;41972;48.774;9.282;2023-03-03T05:42:26;86.90;;;78.87;;
2157;SDS011;41972;48.774;9.282;2023-03-03T05:44:52;62.47;;;55.73;;
2157;SDS011;41972;48.774;9.282;2023-03-03T05:47:17;79.70;;;72.40;;
2157;SDS011;41972;48.774;9.282;2023-03-03T05:49:43;65.00;;;58.13;;
2157;SDS011;41972;48.774;9.282;2023-03-03T05:52:08;76.37;;;69.67;;
2157;SDS011;41972;48.774;9.282;2023-03-03T05:54:35;69.87;;;62.63;;
2157;SDS011;41972;48.774;9.282;2023-03-03T05:57:00;90.67;;;82.90;;
2157;SDS011;41972;48.774;9.282;2023-03-03T05:59:26;69.53;;;62.67;;
2157;SDS011;41972;48.774;9.282;2023-03-03T06:01:52;63.23;;;57.13;;
2157;SDS011;41972;48.774;9.282;2023-03-03T06:04:17;82.43;;;74.97;;
2157;SDS011;41972;48.774;9.282;2023-03-03T06:06:43;82.77;;;75.97;;
2157;SDS011;41972;48.774;9.282;2023-03-03T06:09:08;88.47;;;80.67;;
2157;SDS011;41972;48.774;9.282;2023-03-03T06:11:34;65.63;;;59.00;;
2157;SDS011;41972;48.774;9.282;2023-03-03T06:13:59;80.63;;;73.53;;
2157;SDS011;41972;48.774;9.282;2023-03-03T06:16:25;80.50;;;73.53;;
2157;SDS011;41972;48.774;9.282;2023-03-03T06:18:50;110.13;;;101.87;;
2157;SDS011;41972;48.774;9.282;2023-03-03T06:21:16;78.63;;;72.33;;
2157;SDS011;41972;48.774;9.282;2023-03-03T06:23:41;77.20;;;70.83;;
2157;SDS011;41972;48.774;9.282;2023-03-03T06:26:07;64.30;;;58.20;;
2157;SDS011;41972;48.774;9.282;2023-03-03T06:28:32;73.93;;;67.97;;
2157;SDS011;41972;48.774;9.282;2023-03-03T06:30:58;81.10;;;74.33;;
2157;SDS011;41972;48.774;9.282;2023-03-03T06:33:23;70.93;;;64.80;;
2157;SDS011;41972;48.774;9.282;2023-03-03T06:35:49;61.10;;;55.03;;
2157;SDS011;41972;48.774;9.282;2023-03-03T06:38:16;63.67;;;57.70;;
2157;SDS011;41972;48.774;9.282;2023-03-03T06:40:43;55.37;;;49.60;;
2157;SDS011;41972;48.774;9.282;2023-03-03T06:43:09;57.03;;;51.20;;
2157;SDS011;41972;48.774;9.282;2023-03-03T06:45:35;54.17;;;48.97;;
2157;SDS011;41972;48.774;9.282;2023-03-03T06:48:01;55.07;;;49.67;;
2157;SDS011;41972;48.774;9.282;2023-03-03T06:50:26;54.80;;;49.10;;
2157;SDS011;41972;48.774;9.282;2023-03-03T06:53:14;53.63;;;48.27;;
2157;SDS011;41972;48.774;9.282;2023-03-03T06:55:39;54.63;;;49.30;;
2157;SDS011;41972;48.774;9.282;2023-03-03T06:58:10;58.30;;;52.70;;
2157;SDS011;41972;48.774;9.282;2023-03-03T07:00:41;64.43;;;58.50;;
2157;SDS011;41972;48.774;9.282;2023-03-03T07:03:12;60.13;;;54.30;;
2157;SDS011;41972;48.774;9.282;2023-03-03T07:05:43;105.23;;;98.23;;
2157;SDS011;41972;48.774;9.282;2023-03-03T07:08:11;60.53;;;54.90;;
2157;SDS011;41972;48.774;9.282;2023-03-03T07:10:39;59.73;;;54.13;;
2157;SDS011;41972;48.774;9.282;2023-03-03T07:13:15;62.07;;;56.17;;
2157;SDS011;41972;48.774;9.282;2023-03-03T07:15:40;54.20;;;48.37;;
2157;SDS011;41972;48.774;9.282;2023-03-03T07:18:10;72.93;;;66.70;;
2157;SDS011;41972;48.774;9.282;2023-03-03T07:20:50;70.57;;;64.37;;
2157;SDS011;41972;48.774;9.282;2023-03-03T07:25:49;53.70;;;48.23;;
2157;SDS011;41972;48.774;9.282;2023-03-03T07:28:26;74.77;;;68.93;;
2157;SDS011;41972;48.774;9.282;2023-03-03T07:30:53;50.37;;;44.37;;
2157;SDS011;41972;48.774;9.282;2023-03-03T07:33:24;80.20;;;74.40;;
2157;SDS011;41972;48.774;9.282;2023-03-03T07:35:59;67.40;;;61.90;;
2157;SDS011;41972;48.774;9.282;2023-03-03T07:38:30;52.10;;;47.50;;
2157;SDS011;41972;48.774;9.282;2023-03-03T07:41:01;52.33;;;47.47;;
2157;SDS011;41972;48.774;9.282;2023-03-03T07:48:36;55.53;;;50.63;;
2157;SDS011;41972;48.774;9.282;2023-03-03T07:51:10;81.77;;;76.17;;
2157;SDS011;41972;48.774;9.282;2023-03-03T07:54:14;89.40;;;83.90;;
2157;SDS011;41972;48.774;9.282;2023-03-03T07:59:34;52.47;;;48.40;;
2157;SDS011;41972;48.774;9.282;2023-03-03T08:02:00;73.23;;;68.33;;
2157;SDS011;41972;48.774;9.282;2023-03-03T08:04:37;63.10;;;58.70;;
2157;SDS011;41972;48.774;9.282;2023-03-03T08:07:11;36.73;;;33.43;;
2157;SDS011;41972;48.774;9.282;2023-03-03T08:15:25;45.63;;;42.00;;
2157;SDS011;41972;48.774;9.282;2023-03-03T08:17:55;67.73;;;63.07;;
2157;SDS011;41972;48.774;9.282;2023-03-03T08:20:30;49.70;;;45.70;;
2157;SDS011;41972;48.774;9.282;2023-03-03T08:23:07;63.43;;;58.90;;
2157;SDS011;41972;48.774;9.282;2023-03-03T08:25:33;63.10;;;58.77;;
2157;SDS011;41972;48.774;9.282;2023-03-03T08:28:00;47.33;;;43.23;;
2157;SDS011;41972;48.774;9.282;2023-03-03T08:30:25;56.07;;;51.77;;
2157;SDS011;41972;48.774;9.282;2023-03-03T08:32:51;54.63;;;50.43;;
2157;SDS011;41972;48.774;9.282;2023-03-03T08:35:16;40.60;;;36.80;;
2157;SDS011;41972;48.774;9.282;2023-03-03T08:37:42;42.97;;;39.17;;
2157;SDS011;41972;48.774;9.282;2023-03-03T08:40:07;48.77;;;44.60;;
2157;SDS011;41972;48.774;9.282;2023-03-03T08:42:33;48.67;;;44.50;;
2157;SDS011;41972;48.774;9.282;2023-03-03T08:44:59;53.70;;;49.40;;
2157;SDS011;41972;48.774;9.282;2023-03-03T08:47:25;40.40;;;36.50;;
2157;SDS011;41972;48.774;9.282;2023-03-03T08:49:50;53.00;;;49.13;;
2157;SDS011;41972;48.774;9.282;2023-03-03T08:52:16;45.23;;;41.40;;
2157;SDS011;41972;48.774;9.282;2023-03-03T08:54:41;44.60;;;40.83;;
2157;SDS011;41972;48.774;9.282;2023-03-03T08:57:07;39.83;;;36.53;;
2157;SDS011;41972;48.774;9.282;2023-03-03T08:59:32;43.93;;;40.53;;
2157;SDS011;41972;48.774;9.282;2023-03-03T09:02:03;48.93;;;45.03;;
2157;SDS011;41972;48.774;9.282;2023-03-03T09:04:29;56.00;;;52.10;;
2157;SDS011;41972;48.774;9.282;2023-03-03T09:06:54;79.73;;;75.43;;
2157;SDS011;41972;48.774;9.282;2023-03-03T09:09:20;52.10;;;48.30;;
2157;SDS011;41972;48.774;9.282;2023-03-03T09:11:45;51.27;;;47.60;;
2157;SDS011;41972;48.774;9.282;2023-03-03T09:14:12;74.90;;;70.57;;
2157;SDS011;41972;48.774;9.282;2023-03-03T09:17:01;53.43;;;49.13;;
2157;SDS011;41972;48.774;9.282;2023-03-03T09:19:28;55.10;;;50.33;;
2157;SDS011;41972;48.774;9.282;2023-03-03T09:22:00;41.60;;;38.00;;
2157;SDS011;41972;48.774;9.282;2023-03-03T09:24:35;46.47;;;42.43;;
2157;SDS011;41972;48.774;9.282;2023-03-03T09:27:01;59.00;;;54.87;;
2157;SDS011;41972;48.774;9.282;2023-03-03T09:29:31;78.67;;;73.90;;
2157;SDS011;41972;48.774;9.282;2023-03-03T09:32:36;92.30;;;87.17;;
2157;SDS011;41972;48.774;9.282;2023-03-03T09:38:01;52.90;;;48.37;;
2157;SDS011;41972;48.774;9.282;2023-03-03T09:40:47;57.73;;;53.40;;
2157;SDS011;41972;48.774;9.282;2023-03-03T09:51:50;61.17;;;56.80;;
2157;SDS011;41972;48.774;9.282;2023-03-03T09:54:37;60.60;;;56.33;;
2157;SDS011;41972;48.774;9.282;2023-03-03T09:57:07;46.87;;;43.17;;
2157;SDS011;41972;48.774;9.282;2023-03-03T10:02:24;61.83;;;57.07;;
2157;SDS011;41972;48.774;9.282;2023-03-03T10:05:07;65.63;;;60.67;;
2157;SDS011;41972;48.774;9.282;2023-03-03T10:08:02;54.27;;;49.67;;
2157;SDS011;41972;48.774;9.282;2023-03-03T10:10:56;53.20;;;48.77;;
2157;SDS011;41972;48.774;9.282;2023-03-03T10:14:33;50.60;;;46.57;;
2157;SDS011;41972;48.774;9.282;2023-03-03T10:19:24;45.37;;;41.33;;
2157;SDS011;41972;48.774;9.282;2023-03-03T10:28:09;48.57;;;44.37;;
2157;SDS011;41972;48.774;9.282;2023-03-03T10:31:03;58.40;;;53.80;;
2157;SDS011;41972;48.774;9.282;2023-03-03T10:33:56;55.83;;;51.57;;
2157;SDS011;41972;48.774;9.282;2023-03-03T10:36:52;76.80;;;71.87;;
2157;SDS011;41972;48.774;9.282;2023-03-03T10:45:10;53.80;;;49.33;;
2157;SDS011;41972;48.774;9.282;2023-03-03T10:51:17;55.23;;;50.60;;
2157;SDS011;41972;48.774;9.282;2023-03-03T11:02:19;60.57;;;55.97;;
2157;SDS011;41972;48.774;9.282;2023-03-03T11:07:28;61.67;;;56.57;;
2157;SDS011;41972;48.774;9.282;2023-03-03T11:13:25;81.67;;;76.27;;
2157;SDS011;41972;48.774;9.282;2023-03-03T11:16:03;129.20;;;122.03;;
2157;SDS011;41972;48.774;9.282;2023-03-03T11:21:14;48.93;;;44.70;;
2157;SDS011;41972;48.774;9.282;2023-03-03T11:31:47;52.97;;;48.47;;
2157;SDS011;41972;48.774;9.282;2023-03-03T11:34:35;49.13;;;44.77;;
2157;SDS011;41972;48.774;9.282;2023-03-03T11:37:14;52.10;;;47.27;;
2157;SDS011;41972;48.774;9.282;2023-03-03T11:39:50;59.73;;;55.00;;
2157;SDS011;41972;48.774;9.282;2023-03-03T11:42:23;48.20;;;43.83;;
2157;SDS011;41972;48.774;9.282;2023-03-03T11:45:10;59.50;;;54.87;;
2157;SDS011;41972;48.774;9.282;2023-03-03T11:50:35;49.43;;;45.13;;
2157;SDS011;41972;48.774;9.282;2023-03-03T11:53:16;56.27;;;51.67;;
2157;SDS011;41972;48.774;9.282;2023-03-03T11:56:03;47.40;;;42.90;;
2157;SDS011;41972;48.774;9.282;2023-03-03T11:58:47;101.33;;;95.47;;
2157;SDS011;41972;48.774;9.282;2023-03-03T12:01:32;54.60;;;50.27;;
2157;SDS011;41972;48.774;9.282;2023-03-03T12:04:03;59.63;;;54.77;;
2157;SDS011;41972;48.774;9.282;2023-03-03T12:06:47;47.63;;;43.53;;
2157;SDS011;41972;48.774;9.282;2023-03-03T12:09:38;47.77;;;43.53;;
2157;SDS011;41972;48.774;9.282;2023-03-03T12:12:23;56.77;;;52.50;;
2157;SDS011;41972;48.774;9.282;2023-03-03T12:17:50;52.77;;;48.60;;
2157;SDS011;41972;48.774;9.282;2023-03-03T12:20:34;44.17;;;40.10;;
2157;SDS011;41972;48.774;9.282;2023-03-03T12:23:23;47.20;;;43.50;;
2157;SDS011;41972;48.774;9.282;2023-03-03T12:26:24;58.27;;;53.97;;
2157;SDS011;41972;48.774;9.282;2023-03-03T12:31:52;36.47;;;32.97;;
2157;SDS011;41972;48.774;9.282;2023-03-03T12:34:39;38.87;;;35.37;;
2157;SDS011;41972;48.774;9.282;2023-03-03T12:37:14;39.73;;;36.23;;
2157;SDS011;41972;48.774;9.282;2023-03-03T12:45:04;62.73;;;58.43;;
2157;SDS011;41972;48.774;9.282;2023-03-03T12:47:39;38.77;;;35.53;;
2157;SDS011;41972;48.774;9.282;2023-03-03T13:01:29;35.20;;;32.10;;
2157;SDS011;41972;48.774;9.282;2023-03-03T13:04:25;50.43;;;46.43;;
2157;SDS011;41972;48.774;9.282;2023-03-03T13:10:03;45.37;;;41.93;;
2157;SDS011;41972;48.774;9.282;2023-03-03T13:12:50;40.50;;;36.70;;
2157;SDS011;41972;48.774;9.282;2023-03-03T13:15:20;41.93;;;38.03;;
2157;SDS011;41972;48.774;9.282;2023-03-03T13:20:57;40.87;;;37.47;;
2157;SDS011;41972;48.774;9.282;2023-03-03T13:23:45;51.53;;;47.47;;
2157;SDS011;41972;48.774;9.282;2023-03-03T13:26:25;51.53;;;47.77;;
2157;SDS011;41972;48.774;9.282;2023-03-03T13:31:47;36.13;;;32.93;;
2157;SDS011;41972;48.774;9.282;2023-03-03T13:34:22;136.43;;;130.47;;
2157;SDS011;41972;48.774;9.282;2023-03-03T13:36:58;56.63;;;52.63;;
2157;SDS011;41972;48.774;9.282;2023-03-03T13:39:47;38.37;;;34.77;;
2157;SDS011;41972;48.774;9.282;2023-03-03T13:42:23;42.13;;;38.43;;
2157;SDS011;41972;48.774;9.282;2023-03-03T13:44:55;55.13;;;51.23;;
2157;SDS011;41972;48.774;9.282;2023-03-03T13:47:30;51.07;;;47.27;;
2157;SDS011;41972;48.774;9.282;2023-03-03T13:50:11;42.77;;;39.27;;
2157;SDS011;41972;48.774;9.282;2023-03-03T13:55:40;41.03;;;36.87;;
2157;SDS011;41972;48.774;9.282;2023-03-03T13:58:29;55.07;;;51.37;;
2157;SDS011;41972;48.774;9.282;2023-03-03T14:01:21;67.20;;;63.03;;
2157;SDS011;41972;48.774;9.282;2023-03-03T14:04:19;85.40;;;80.10;;
2157;SDS011;41972;48.774;9.282;2023-03-03T14:06:56;67.00;;;62.70;;
2157;SDS011;41972;48.774;9.282;2023-03-03T14:10:01;66.67;;;62.37;;
2157;SDS011;41972;48.774;9.282;2023-03-03T14:15:03;57.70;;;53.67;;
2157;SDS011;41972;48.774;9.282;2023-03-03T14:20:26;52.67;;;48.80;;
2157;SDS011;41972;48.774;9.282;2023-03-03T14:22:55;46.57;;;42.77;;
2157;SDS011;41972;48.774;9.282;2023-03-03T14:25:49;69.63;;;65.13;;
2157;SDS011;41972;48.774;9.282;2023-03-03T14:28:17;59.00;;;55.03;;
2157;SDS011;41972;48.774;9.282;2023-03-03T14:30:45;136.87;;;130.40;;
2157;SDS011;41972;48.774;9.282;2023-03-03T14:38:08;62.00;;;57.70;;
2157;SDS011;41972;48.774;9.282;2023-03-03T14:40:42;47.10;;;43.53;;
2157;SDS011;41972;48.774;9.282;2023-03-03T14:43:23;41.53;;;37.97;;
2157;SDS011;41972;48.774;9.282;2023-03-03T14:45:51;52.07;;;48.33;;
2157;SDS011;41972;48.774;9.282;2023-03-03T14:48:19;46.30;;;42.70;;
2157;SDS011;41972;48.774;9.282;2023-03-03T14:50:54;50.47;;;46.83;;
2157;SDS011;41972;48.774;9.282;2023-03-03T14:56:10;50.90;;;46.80;;
2157;SDS011;41972;48.774;9.282;2023-03-03T14:58:41;49.00;;;44.90;;
2157;SDS011;41972;48.774;9.282;2023-03-03T15:04:00;59.73;;;55.57;;
2157;SDS011;41972;48.774;9.282;2023-03-03T15:06:34;171.97;;;164.60;;
2157;SDS011;41972;48.774;9.282;2023-03-03T15:17:32;47.73;;;43.83;;
2157;SDS011;41972;48.774;9.282;2023-03-03T15:29:03;56.23;;;51.83;;
2157;SDS011;41972;48.774;9.282;2023-03-03T15:31:37;64.27;;;59.83;;
2157;SDS011;41972;48.774;9.282;2023-03-03T15:36:54;51.17;;;47.13;;
2157;SDS011;41972;48.774;9.282;2023-03-03T15:39:35;60.17;;;55.57;;
2157;SDS011;41972;48.774;9.282;2023-03-03T15:42:26;59.57;;;55.27;;
2157;SDS011;41972;48.774;9.282;2023-03-03T15:47:56;58.70;;;54.50;;
2157;SDS011;41972;48.774;9.282;2023-03-03T15:50:31;54.70;;;50.60;;
2157;SDS011;41972;48.774;9.282;2023-03-03T15:53:28;44.87;;;41.40;;
2157;SDS011;41972;48.774;9.282;2023-03-03T16:04:56;39.50;;;35.60;;
2157;SDS011;41972;48.774;9.282;2023-03-03T16:12:54;48.00;;;43.87;;
2157;SDS011;41972;48.774;9.282;2023-03-03T16:15:45;47.67;;;43.23;;
2157;SDS011;41972;48.774;9.282;2023-03-03T16:21:14;49.13;;;44.93;;
2157;SDS011;41972;48.774;9.282;2023-03-03T16:29:33;46.33;;;42.17;;
2157;SDS011;41972;48.774;9.282;2023-03-03T16:32:16;66.77;;;61.77;;
2157;SDS011;41972;48.774;9.282;2023-03-03T16:35:13;57.70;;;53.20;;
2157;SDS011;41972;48.774;9.282;2023-03-03T16:38:03;59.53;;;55.33;;
2157;SDS011;41972;48.774;9.282;2023-03-03T16:40:44;56.80;;;52.07;;
2157;SDS011;41972;48.774;9.282;2023-03-03T16:45:45;54.67;;;50.10;;
2157;SDS011;41972;48.774;9.282;2023-03-03T16:48:34;60.40;;;55.80;;
2157;SDS011;41972;48.774;9.282;2023-03-03T16:51:13;64.20;;;59.50;;
2157;SDS011;41972;48.774;9.282;2023-03-03T16:56:53;73.50;;;68.53;;
2157;SDS011;41972;48.774;9.282;2023-03-03T16:59:45;54.40;;;50.20;;
2157;SDS011;41972;48.774;9.282;2023-03-03T17:05:19;38.73;;;35.13;;
2157;SDS011;41972;48.774;9.282;2023-03-03T17:10:44;83.83;;;78.40;;
2157;SDS011;41972;48.774;9.282;2023-03-03T17:13:44;57.70;;;53.33;;
2157;SDS011;41972;48.774;9.282;2023-03-03T17:19:12;102.53;;;97.00;;
2157;SDS011;41972;48.774;9.282;2023-03-03T17:21:50;49.87;;;45.57;;
2157;SDS011;41972;48.774;9.282;2023-03-03T17:24:46;45.63;;;41.77;;
2157;SDS011;41972;48.774;9.282;2023-03-03T17:29:54;53.97;;;49.47;;
2157;SDS011;41972;48.774;9.282;2023-03-03T17:35:56;52.67;;;48.13;;
2157;SDS011;41972;48.774;9.282;2023-03-03T17:38:50;52.60;;;48.53;;
2157;SDS011;41972;48.774;9.282;2023-03-03T17:47:31;64.87;;;60.30;;
2157;SDS011;41972;48.774;9.282;2023-03-03T17:50:25;62.93;;;58.10;;
2157;SDS011;41972;48.774;9.282;2023-03-03T17:55:36;46.67;;;42.67;;
2157;SDS011;41972;48.774;9.282;2023-03-03T18:01:31;71.07;;;66.03;;
2157;SDS011;41972;48.774;9.282;2023-03-03T18:06:40;45.50;;;41.43;;
2157;SDS011;41972;48.774;9.282;2023-03-03T18:15:14;50.70;;;45.90;;
2157;SDS011;41972;48.774;9.282;2023-03-03T18:20:29;55.67;;;51.07;;
2157;SDS011;41972;48.774;9.282;2023-03-03T18:23:52;54.60;;;50.17;;
2157;SDS011;41972;48.774;9.282;2023-03-03T18:26:27;58.47;;;53.57;;
2157;SDS011;41972;48.774;9.282;2023-03-03T18:29:17;124.00;;;117.43;;
2157;SDS011;41972;48.774;9.282;2023-03-03T18:32:28;59.37;;;54.57;;
2157;SDS011;41972;48.774;9.282;2023-03-03T18:34:42;93.33;;;87.90;;
2157;SDS011;41972;48.774;9.282;2023-03-03T18:37:09;46.60;;;42.63;;
2157;SDS011;41972;48.774;9.282;2023-03-03T18:45:09;47.50;;;43.27;;
2157;SDS011;41972;48.774;9.282;2023-03-03T18:48:29;48.63;;;44.50;;
2157;SDS011;41972;48.774;9.282;2023-03-03T18:50:47;63.63;;;57.93;;
2157;SDS011;41972;48.774;9.282;2023-03-03T18:53:24;62.93;;;58.23;;
2157;SDS011;41972;48.774;9.282;2023-03-03T18:58:23;57.90;;;53.03;;